This is the latest recevied weather packets stored in our database for station/object LRSB. If no packets are shown the sender has not sent any weather packets the latest 10 day(s).
| Time | Temp. | Humidity | Pressure | Rain* | Wind** | Luminosity | Snow |
|---|---|---|---|---|---|---|---|
| 1777592891 | 1.11° C | 100% | 1025 hPa | - | - | - | - |
| 1777591991 | 1.11° C | 100% | 1025 hPa | - | - | - | - |
| 1777591091 | 1.11° C | 87% | 1025 hPa | - | - | - | - |
| 1777590191 | 0° C | 100% | 1025 hPa | - | - | - | - |
| 1777589291 | 1.11° C | 100% | 1025 hPa | - | - | - | - |
| 1777588391 | 1.11° C | 100% | 1025 hPa | - | - | - | - |
| 1777587491 | 2.78° C | 93% | 1025 hPa | - | - | - | - |
| 1777586591 | 2.78° C | 93% | 1025 hPa | - | - | - | - |
| 1777585692 | 2.78° C | 93% | 1025 hPa | - | - | - | - |
| 1777584792 | 2.78° C | 93% | 1025 hPa | - | - | - | - |
| 1777583892 | 2.78° C | 93% | 1025 hPa | - | - | - | - |
| 1777582994 | 2.78° C | 93% | 1025 hPa | - | - | - | - |
| 1777582091 | 2.78° C | 93% | 1025 hPa | - | - | - | - |
| 1777581191 | 2.78° C | 93% | 1025 hPa | - | - | - | - |
| 1777580291 | 3.89° C | 87% | 1025 hPa | - | - | - | - |
| 1777579392 | 3.89° C | 87% | 1025 hPa | - | - | - | - |
| 1777578491 | 3.89° C | 87% | 1025 hPa | - | - | - | - |
| 1777577612 | 3.89° C | 87% | 1025 hPa | - | - | - | - |
| 1777576694 | 5° C | 87% | 1025 hPa | - | - | - | - |
| 1777575791 | 5° C | 87% | 1025 hPa | - | - | - | - |
| 1777574891 | 5° C | 87% | 1024 hPa | - | - | - | - |
| 1777573991 | 5° C | 87% | 1024 hPa | - | - | - | - |
| 1777573091 | 6.11° C | 76% | 1024 hPa | - | - | - | - |
| 1777572191 | 6.11° C | 76% | 1024 hPa | - | - | - | - |
| 1777571291 | 6.11° C | 81% | 1024 hPa | - | - | - | - |
* Rain since midnight (hover to see other rain measurements)
** Current wind speed in m/s (hover to see current wind gust speed)